Time;durP1;ratioP1;P1;durP2;ratioP2;P2;SDS_P1;SDS_P2;PMS_P1;PMS_P2;Temp;Humidity;BMP_temperature;BMP_pressure;BME280_temperature;BME280_humidity;BME280_pressure;Samples;Min_cycle;Max_cycle;Signal;HPM_P1;HPM_P2
2022/08/18 00:01:49;;;;;;;5.63;3.90;;;;;;;23.75;nan;-24476.22;4953470;29;20193;-59
2022/08/18 00:04:15;;;;;;;6.88;4.32;;;;;;;23.83;nan;-24478.28;4953757;29;20565;-60
2022/08/18 00:06:41;;;;;;;5.15;3.80;;;;;;;24.15;nan;-24486.97;4956651;29;20201;-60
2022/08/18 00:09:09;;;;;;;7.55;4.03;;;;;;;24.11;nan;-24485.88;4956598;29;20178;-60
2022/08/18 00:11:39;;;;;;;6.28;3.97;;;;;;;23.67;nan;-24473.88;4956190;29;20186;-60
2022/08/18 00:14:05;;;;;;;5.78;3.70;;;;;;;23.92;nan;-24480.78;4955688;28;20182;-61
2022/08/18 00:16:30;;;;;;;7.57;4.28;;;;;;;23.92;nan;-24480.63;4955785;29;20222;-60
2022/08/18 00:18:56;;;;;;;6.85;4.40;;;;;;;23.59;nan;-24471.66;4956196;29;20341;-60
2022/08/18 00:21:21;;;;;;;6.95;4.22;;;;;;;23.54;nan;-24470.28;4956874;29;20174;-60
2022/08/18 00:23:47;;;;;;;5.72;3.92;;;;;;;23.71;nan;-24475.13;4956161;29;20217;-60
2022/08/18 00:26:12;;;;;;;10.27;4.63;;;;;;;23.58;nan;-24471.53;4956174;29;20638;-60
2022/08/18 00:28:37;;;;;;;5.20;4.10;;;;;;;23.84;nan;-24478.44;4955544;29;20170;-59
2022/08/18 00:31:04;;;;;;;5.70;3.78;;;;;;;23.64;nan;-24473.03;4955725;28;20178;-60
2022/08/18 00:33:30;;;;;;;7.10;4.38;;;;;;;23.65;nan;-24473.47;4955790;29;20181;-59
2022/08/18 00:35:55;;;;;;;5.25;4.00;;;;;;;23.82;nan;-24477.88;4955724;29;20174;-59
2022/08/18 00:38:21;;;;;;;5.32;3.72;;;;;;;23.44;nan;-24467.66;4955781;29;20548;-59
2022/08/18 00:40:50;;;;;;;7.13;4.13;;;;;;;23.53;nan;-24470.00;4955563;29;20177;-59
2022/08/18 00:43:21;;;;;;;5.57;3.67;;;;;;;23.86;nan;-24479.13;4955491;29;20185;-59
2022/08/18 00:45:48;;;;;;;5.63;4.00;;;;;;;23.60;nan;-24471.94;4955583;29;20538;-59
2022/08/18 00:48:14;;;;;;;6.57;3.92;;;;;;;23.50;nan;-24469.31;4955483;29;20186;-58
2022/08/18 00:50:52;;;;;;;7.45;3.85;;;;;;;23.56;nan;-24470.84;4954995;29;20796;-58
2022/08/18 00:53:28;;;;;;;5.50;4.03;;;;;;;23.94;nan;-24481.19;4955205;29;20177;-59
2022/08/18 00:55:57;;;;;;;5.10;3.65;;;;;;;23.63;nan;-24472.91;4955777;28;20204;-58
2022/08/18 00:58:37;;;;;;;5.82;4.20;;;;;;;23.49;nan;-24469.03;4955119;29;20288;-59
2022/08/18 01:01:07;;;;;;;5.97;4.13;;;;;;;23.93;nan;-24480.91;4955360;29;20236;-59
2022/08/18 01:03:38;;;;;;;4.85;3.70;;;;;;;23.70;nan;-24474.84;4955214;29;20174;-59
2022/08/18 01:06:16;;;;;;;5.25;3.75;;;;;;;23.68;nan;-24474.16;4955334;29;20253;-59
2022/08/18 01:08:41;;;;;;;5.93;4.07;;;;;;;23.73;nan;-24475.53;4955144;29;20625;-59
2022/08/18 01:11:09;;;;;;;5.65;3.83;;;;;;;23.59;nan;-24471.81;4955022;29;20174;-59
2022/08/18 01:13:37;;;;;;;6.53;4.00;;;;;;;23.86;nan;-24478.97;4954773;28;20181;-59
2022/08/18 01:21:49;;;;;;;6.25;4.20;;;;;;;23.89;nan;-24479.81;4954430;29;20233;-58
2022/08/18 01:21:50;;;;;;;6.85;3.97;;;;;;;23.76;nan;-24476.34;4954797;29;20202;-59
2022/08/18 01:24:16;;;;;;;5.82;4.10;;;;;;;23.78;nan;-24477.03;4954650;29;20178;-59
2022/08/18 01:26:48;;;;;;;7.80;3.95;;;;;;;24.08;nan;-24485.06;4952367;28;20619;-59
2022/08/18 01:29:15;;;;;;;6.60;4.07;;;;;;;24.03;nan;-24483.81;4954660;29;20209;-59
2022/08/18 01:31:53;;;;;;;6.63;4.20;;;;;;;23.81;nan;-24477.59;4954172;28;20253;-59
2022/08/18 01:34:21;;;;;;;7.75;4.03;;;;;;;24.10;nan;-24485.59;4954823;29;20192;-59
2022/08/18 01:36:47;;;;;;;5.18;3.72;;;;;;;23.95;nan;-24481.59;4954753;29;20169;-59
2022/08/18 01:39:13;;;;;;;5.03;3.67;;;;;;;23.80;nan;-24477.47;4954571;28;20202;-59
2022/08/18 01:41:39;;;;;;;6.70;4.38;;;;;;;24.05;nan;-24484.34;4954422;29;20684;-59
2022/08/18 01:44:08;;;;;;;6.38;3.70;;;;;;;23.86;nan;-24478.97;4954281;29;20563;-59
2022/08/18 01:46:34;;;;;;;5.70;4.00;;;;;;;23.80;nan;-24477.31;4953869;29;20685;-59
2022/08/18 01:49:00;;;;;;;6.15;4.10;;;;;;;23.97;nan;-24482.16;4954135;29;20170;-59
2022/08/18 01:51:31;;;;;;;9.10;4.88;;;;;;;24.03;nan;-24483.66;4954242;29;20174;-59
2022/08/18 01:53:57;;;;;;;8.18;4.38;;;;;;;24.03;nan;-24483.66;4954630;29;20224;-59
2022/08/18 01:56:26;;;;;;;12.05;4.40;;;;;;;24.10;nan;-24485.59;4953942;29;20189;-59
2022/08/18 01:58:53;;;;;;;6.13;3.92;;;;;;;24.05;nan;-24484.22;4954965;28;20194;-58
2022/08/18 02:01:18;;;;;;;7.72;4.03;;;;;;;24.03;nan;-24483.81;4953986;29;20185;-59
2022/08/18 02:03:48;;;;;;;5.90;3.88;;;;;;;24.08;nan;-24485.19;4954009;29;20629;-59
2022/08/18 02:06:17;;;;;;;5.57;3.80;;;;;;;24.22;nan;-24488.91;4954155;29;20314;-59
2022/08/18 02:08:43;;;;;;;6.35;4.10;;;;;;;24.06;nan;-24484.63;4954027;29;20265;-58
2022/08/18 02:11:09;;;;;;;6.53;4.28;;;;;;;24.16;nan;-24487.25;4954082;29;20229;-59
2022/08/18 02:13:35;;;;;;;6.10;3.72;;;;;;;24.16;nan;-24487.25;4953918;29;20162;-59
2022/08/18 02:16:01;;;;;;;5.85;3.90;;;;;;;24.36;nan;-24492.63;4953641;29;20237;-59
2022/08/18 02:18:30;;;;;;;5.70;4.20;;;;;;;24.40;nan;-24493.88;4952715;28;20198;-59
2022/08/18 02:20:58;;;;;;;5.88;3.85;;;;;;;24.37;nan;-24492.91;4953275;28;20182;-59
2022/08/18 02:23:24;;;;;;;6.75;4.15;;;;;;;23.98;nan;-24482.28;4953089;28;20209;-59
2022/08/18 02:25:50;;;;;;;8.00;4.50;;;;;;;24.32;nan;-24491.53;4952854;29;20280;-59
2022/08/18 02:28:16;;;;;;;6.15;3.80;;;;;;;24.13;nan;-24486.44;4953460;29;20272;-59
2022/08/18 02:30:42;;;;;;;7.07;4.32;;;;;;;24.11;nan;-24485.88;4952004;29;20189;-59
2022/08/18 02:33:09;;;;;;;9.07;4.50;;;;;;;23.41;nan;-24466.69;4941154;29;20220;-58
2022/08/18 02:35:36;;;;;;;8.82;4.72;;;;;;;23.92;nan;-24480.63;4943026;29;20228;-59
2022/08/18 02:38:04;;;;;;;9.98;5.25;;;;;;;23.91;nan;-24480.34;4940976;28;20264;-59
2022/08/18 02:40:32;;;;;;;6.50;4.38;;;;;;;23.37;nan;-24465.72;4943040;29;20192;-59
2022/08/18 02:42:58;;;;;;;6.85;4.20;;;;;;;23.56;nan;-24470.97;4942147;29;20190;-59
2022/08/18 02:45:24;;;;;;;8.80;4.10;;;;;;;23.69;nan;-24474.56;4940996;29;20257;-59
2022/08/18 02:47:54;;;;;;;6.93;4.38;;;;;;;23.73;nan;-24475.53;4940920;29;20876;-59
2022/08/18 02:50:19;;;;;;;8.88;4.38;;;;;;;23.68;nan;-24474.28;4943457;29;20189;-59
2022/08/18 02:52:45;;;;;;;6.13;4.10;;;;;;;23.78;nan;-24476.91;4943619;29;20181;-60
2022/08/18 02:55:11;;;;;;;8.63;3.75;;;;;;;23.83;nan;-24478.16;4941140;29;20198;-59
2022/08/18 02:57:42;;;;;;;7.53;4.10;;;;;;;23.69;nan;-24474.56;4943045;29;20534;-59
2022/08/18 03:00:10;;;;;;;4.93;3.58;;;;;;;23.53;nan;-24470.16;4943548;29;20186;-59
2022/08/18 03:02:37;;;;;;;7.22;4.25;;;;;;;23.37;nan;-24465.72;4944701;29;20189;-59
2022/08/18 03:05:03;;;;;;;7.00;4.00;;;;;;;23.54;nan;-24470.41;4943613;29;20198;-59
2022/08/18 03:07:28;;;;;;;5.25;3.78;;;;;;;23.57;nan;-24471.13;4953649;29;20213;-58
2022/08/18 03:09:54;;;;;;;8.43;4.47;;;;;;;23.18;nan;-24460.47;4951469;29;20181;-59
2022/08/18 03:12:19;;;;;;;6.88;4.30;;;;;;;23.64;nan;-24473.19;4946301;29;20190;-59
2022/08/18 03:14:45;;;;;;;7.22;4.35;;;;;;;23.66;nan;-24473.75;4947918;29;20276;-59
2022/08/18 03:17:13;;;;;;;7.50;4.43;;;;;;;23.37;nan;-24465.72;4953025;29;20256;-59
2022/08/18 03:19:40;;;;;;;6.05;4.28;;;;;;;23.76;nan;-24476.50;4952828;29;20234;-58
2022/08/18 03:22:07;;;;;;;6.75;4.18;;;;;;;23.69;nan;-24474.56;4947627;29;20186;-61
2022/08/18 03:24:35;;;;;;;6.65;4.95;;;;;;;23.62;nan;-24472.50;4946198;29;20178;-60
2022/08/18 03:27:04;;;;;;;7.28;4.47;;;;;;;23.27;nan;-24462.97;4945836;29;20736;-61
2022/08/18 03:29:30;;;;;;;5.97;4.50;;;;;;;23.41;nan;-24466.81;4946615;29;20182;-59
2022/08/18 03:31:55;;;;;;;6.60;4.20;;;;;;;23.46;nan;-24468.06;4946414;29;20189;-59
2022/08/18 03:34:21;;;;;;;7.18;4.07;;;;;;;23.11;nan;-24458.69;4945888;29;20186;-58
2022/08/18 03:36:49;;;;;;;7.72;4.35;;;;;;;23.50;nan;-24469.19;4943614;29;20213;-58
2022/08/18 03:39:15;;;;;;;7.43;4.05;;;;;;;23.49;nan;-24469.03;4943848;29;20264;-59
2022/08/18 03:41:42;;;;;;;7.60;4.60;;;;;;;23.51;nan;-24469.59;4939490;29;20194;-58
2022/08/18 03:44:09;;;;;;;7.75;4.60;;;;;;;23.06;nan;-24457.31;4947031;29;20212;-58
2022/08/18 03:46:34;;;;;;;7.07;4.30;;;;;;;23.23;nan;-24462.00;4945714;29;20248;-59
2022/08/18 03:49:00;;;;;;;6.55;4.35;;;;;;;23.95;nan;-24481.47;4946521;28;20630;-59
2022/08/18 03:51:30;;;;;;;6.32;4.00;;;;;;;24.67;nan;-24501.03;4950453;29;20232;-59
2022/08/18 03:53:59;;;;;;;5.50;3.78;;;;;;;25.23;nan;-24516.34;4949586;29;20181;-60
2022/08/18 03:56:37;;;;;;;6.30;4.18;;;;;;;25.64;nan;-24527.47;4947422;29;20213;-60
2022/08/18 03:59:06;;;;;;;7.13;4.18;;;;;;;26.31;nan;-24545.75;4939176;29;20216;-60
2022/08/18 04:01:37;;;;;;;7.07;4.38;;;;;;;27.12;nan;-24567.84;4942282;29;20189;-60
2022/08/18 04:04:04;;;;;;;7.97;4.03;;;;;;;27.84;nan;-24587.31;4943958;29;20189;-60
2022/08/18 04:06:33;;;;;;;6.00;4.00;;;;;;;27.76;nan;-24585.00;4939160;29;20193;-60
2022/08/18 04:09:03;;;;;;;6.25;4.15;;;;;;;28.03;nan;-24592.38;4939858;28;20653;-59
2022/08/18 04:11:31;;;;;;;6.53;4.43;;;;;;;29.05;nan;-24619.88;4943257;29;20573;-59
2022/08/18 04:13:57;;;;;;;5.88;3.45;;;;;;;28.95;nan;-24617.41;4949340;29;20533;-60
2022/08/18 04:16:27;;;;;;;6.18;4.22;;;;;;;29.27;nan;-24626.03;4941954;29;20244;-60
2022/08/18 04:18:58;;;;;;;4.68;3.72;;;;;;;29.48;nan;-24631.63;4946862;29;20216;-60
2022/08/18 04:21:24;;;;;;;4.75;3.67;;;;;;;29.40;nan;-24629.44;4945015;29;20186;-60
2022/08/18 04:23:50;;;;;;;7.35;3.88;;;;;;;29.25;nan;-24625.47;4950421;29;20181;-60
2022/08/18 04:26:17;;;;;;;6.88;4.05;;;;;;;29.40;nan;-24629.59;4942217;29;21773;-60
2022/08/18 04:28:43;;;;;;;5.38;3.60;;;;;;;29.17;nan;-24623.16;4945843;29;20608;-60
2022/08/18 04:31:10;;;;;;;6.20;3.90;;;;;;;28.49;nan;-24604.97;4951203;29;20668;-60
2022/08/18 04:33:37;;;;;;;7.05;4.13;;;;;;;28.62;nan;-24608.25;4946688;29;20660;-60
2022/08/18 04:36:11;;;;;;;5.15;3.95;;;;;;;29.23;nan;-24624.94;4945832;29;20708;-60
2022/08/18 04:38:37;;;;;;;5.47;3.85;;;;;;;28.76;nan;-24612.22;4946566;29;20213;-60
2022/08/18 04:41:04;;;;;;;6.03;3.83;;;;;;;29.08;nan;-24620.69;4944197;29;20174;-61
2022/08/18 04:43:29;;;;;;;6.57;3.80;;;;;;;28.94;nan;-24617.00;4944086;28;20654;-60
2022/08/18 04:46:00;;;;;;;5.65;3.60;;;;;;;28.86;nan;-24614.97;4944058;29;20192;-59
2022/08/18 04:48:28;;;;;;;6.88;3.85;;;;;;;28.71;nan;-24610.88;4945611;29;20198;-60
2022/08/18 04:50:53;;;;;;;5.80;4.00;;;;;;;28.28;nan;-24599.22;4952622;29;20246;-60
2022/08/18 04:56:03;;;;;;;7.85;4.82;;;;;;;27.82;nan;-24586.78;4945848;29;20217;-58
2022/08/18 04:58:28;;;;;;;7.18;4.13;;;;;;;27.80;nan;-24586.22;4946931;29;20201;-58
2022/08/18 05:00:59;;;;;;;8.18;4.38;;;;;;;27.89;nan;-24588.56;4945975;28;20668;-59
2022/08/18 05:03:25;;;;;;;6.32;3.95;;;;;;;27.68;nan;-24583.06;4952129;29;20186;-58
2022/08/18 05:05:57;;;;;;;8.38;4.18;;;;;;;27.73;nan;-24584.16;4949650;29;20193;-58
2022/08/18 05:08:23;;;;;;;7.18;4.53;;;;;;;27.85;nan;-24587.44;4951020;29;20540;-58
2022/08/18 05:10:58;;;;;;;8.45;4.07;;;;;;;27.48;nan;-24577.59;4952403;29;20205;-59
2022/08/18 05:13:25;;;;;;;9.48;4.15;;;;;;;27.50;nan;-24578.00;4952651;29;20571;-58
2022/08/18 05:16:02;;;;;;;5.18;3.80;;;;;;;27.46;nan;-24576.91;4954264;29;20664;-58
2022/08/18 05:18:28;;;;;;;5.32;3.65;;;;;;;27.38;nan;-24574.72;4937238;29;20307;-58
2022/08/18 05:20:54;;;;;;;6.68;4.32;;;;;;;27.54;nan;-24579.09;4954631;29;20657;-58
2022/08/18 05:23:21;;;;;;;8.73;4.63;;;;;;;27.58;nan;-24580.19;4954366;28;20182;-58
2022/08/18 05:25:47;;;;;;;7.63;4.90;;;;;;;27.62;nan;-24581.28;4971228;28;20185;-58
2022/08/18 05:28:13;;;;;;;6.38;4.13;;;;;;;27.48;nan;-24577.59;4973842;28;20500;-59
2022/08/18 05:30:40;;;;;;;7.15;4.38;;;;;;;27.78;nan;-24585.69;4973609;28;20173;-59
2022/08/18 05:33:06;;;;;;;6.60;4.03;;;;;;;27.63;nan;-24581.69;4973638;28;20185;-58
2022/08/18 05:35:45;;;;;;;6.45;4.03;;;;;;;27.70;nan;-24583.34;4973856;28;20197;-59
2022/08/18 05:38:38;;;;;;;9.45;4.00;;;;;;;28.16;nan;-24595.81;4973592;28;20209;-59
2022/08/18 05:41:14;;;;;;;7.45;5.00;;;;;;;28.30;nan;-24599.66;4970660;28;20177;-58
2022/08/18 05:43:43;;;;;;;6.30;4.05;;;;;;;28.31;nan;-24600.06;4973630;28;20205;-59
2022/08/18 05:46:10;;;;;;;7.32;4.70;;;;;;;28.16;nan;-24595.81;4973097;28;20184;-59
2022/08/18 05:48:35;;;;;;;7.85;3.90;;;;;;;27.92;nan;-24589.50;4972956;28;20252;-58
2022/08/18 05:51:11;;;;;;;7.53;3.60;;;;;;;27.91;nan;-24589.25;4973089;28;20585;-59
2022/08/18 05:56:46;;;;;;;5.30;3.72;;;;;;;28.35;nan;-24601.16;4961905;28;20197;-60
2022/08/18 05:59:16;;;;;;;4.80;3.63;;;;;;;28.43;nan;-24603.19;4953830;28;20289;-59
2022/08/18 06:01:46;;;;;;;5.43;3.95;;;;;;;28.52;nan;-24605.78;4954182;28;20256;-59
2022/08/18 06:04:39;;;;;;;5.70;3.88;;;;;;;28.51;nan;-24605.38;4953661;28;20717;-58
2022/08/18 06:07:10;;;;;;;5.38;3.90;;;;;;;28.38;nan;-24601.84;4953595;28;20178;-58
2022/08/18 06:09:43;;;;;;;4.97;3.80;;;;;;;28.58;nan;-24607.16;4953545;28;20178;-59
2022/08/18 06:12:32;;;;;;;6.35;4.40;;;;;;;28.80;nan;-24613.31;4953418;28;20206;-59
2022/08/18 06:15:17;;;;;;;12.88;5.70;;;;;;;28.65;nan;-24609.22;4947547;28;20249;-59
2022/08/18 06:18:04;;;;;;;4.53;3.50;;;;;;;28.49;nan;-24604.84;4953295;28;20599;-60
2022/08/18 06:20:29;;;;;;;6.65;4.00;;;;;;;28.86;nan;-24614.81;4953962;28;20180;-60
2022/08/18 06:23:00;;;;;;;6.38;3.92;;;;;;;28.88;nan;-24615.50;4953658;28;20282;-59
2022/08/18 06:25:36;;;;;;;6.50;4.45;;;;;;;28.61;nan;-24607.97;4953472;28;20617;-59
2022/08/18 06:28:15;;;;;;;10.95;4.57;;;;;;;28.83;nan;-24614.00;4953919;28;20178;-59
2022/08/18 06:30:40;;;;;;;4.85;3.67;;;;;;;29.28;nan;-24626.16;4953665;28;20166;-59
2022/08/18 06:33:05;;;;;;;6.30;4.13;;;;;;;29.35;nan;-24628.06;4953666;28;20178;-59
2022/08/18 06:35:44;;;;;;;6.50;4.05;;;;;;;29.25;nan;-24625.34;4953620;28;20499;-59
2022/08/18 06:38:42;;;;;;;5.50;3.67;;;;;;;29.53;nan;-24633.00;4953561;28;20170;-58
2022/08/18 06:41:07;;;;;;;6.40;3.97;;;;;;;29.51;nan;-24632.44;4953057;28;20166;-58
2022/08/18 06:43:36;;;;;;;6.80;4.07;;;;;;;29.71;nan;-24637.75;4953057;28;20317;-59
2022/08/18 06:46:11;;;;;;;5.78;3.72;;;;;;;29.75;nan;-24638.84;4953166;28;20185;-60
2022/08/18 06:48:42;;;;;;;6.40;4.55;;;;;;;29.60;nan;-24634.75;4953695;28;20181;-57
2022/08/18 06:51:11;;;;;;;7.32;3.97;;;;;;;29.79;nan;-24639.94;4953204;28;20173;-58
2022/08/18 06:54:17;;;;;;;5.53;3.78;;;;;;;30.05;nan;-24646.91;4953299;28;20557;-57
2022/08/18 06:56:43;;;;;;;9.05;4.63;;;;;;;30.18;nan;-24650.44;4908542;29;20195;-58
2022/08/18 06:59:30;;;;;;;7.43;4.07;;;;;;;30.17;nan;-24650.31;4941252;29;20244;-58
2022/08/18 07:02:00;;;;;;;8.40;4.20;;;;;;;30.39;nan;-24656.03;4952960;29;20330;-58
2022/08/18 07:04:36;;;;;;;7.38;4.00;;;;;;;30.33;nan;-24654.41;4953050;29;20653;-58
2022/08/18 07:07:31;;;;;;;5.35;3.72;;;;;;;30.41;nan;-24656.72;4952577;29;20186;-58
2022/08/18 07:09:58;;;;;;;4.82;3.70;;;;;;;30.37;nan;-24655.50;4952298;29;20618;-58
2022/08/18 07:12:27;;;;;;;6.13;3.67;;;;;;;30.34;nan;-24654.81;4952958;29;20174;-57
2022/08/18 07:14:59;;;;;;;9.32;4.82;;;;;;;30.11;nan;-24648.53;4952954;29;20194;-58
2022/08/18 07:17:31;;;;;;;5.53;3.78;;;;;;;30.49;nan;-24658.78;4953158;29;20182;-58
2022/08/18 07:20:19;;;;;;;5.80;4.07;;;;;;;30.67;nan;-24663.81;4953417;29;20743;-58
2022/08/18 07:23:00;;;;;;;4.78;3.58;;;;;;;30.87;nan;-24669.13;4952723;29;20193;-58
2022/08/18 07:25:38;;;;;;;5.75;3.90;;;;;;;30.54;nan;-24660.25;4954914;29;20183;-58
2022/08/18 07:28:04;;;;;;;5.43;3.63;;;;;;;30.90;nan;-24669.78;4956733;29;20197;-58
2022/08/18 07:30:36;;;;;;;5.63;3.85;;;;;;;31.09;nan;-24674.97;4956772;29;20209;-58
2022/08/18 07:33:17;;;;;;;6.32;4.22;;;;;;;31.22;nan;-24678.38;4956132;29;20637;-58
2022/08/18 07:35:57;;;;;;;5.50;3.67;;;;;;;31.37;nan;-24682.44;4956964;29;20212;-57
2022/08/18 07:38:25;;;;;;;5.60;3.78;;;;;;;31.04;nan;-24673.75;4956675;29;20289;-59
2022/08/18 07:41:01;;;;;;;5.90;3.80;;;;;;;31.60;nan;-24688.56;4956615;28;20256;-59
2022/08/18 07:43:40;;;;;;;7.03;4.10;;;;;;;31.42;nan;-24683.81;4955876;29;20180;-58
2022/08/18 07:46:15;;;;;;;4.30;3.42;;;;;;;31.56;nan;-24687.63;4956379;29;20169;-59
2022/08/18 07:48:40;;;;;;;5.60;3.70;;;;;;;31.85;nan;-24695.38;4956668;29;20165;-58
2022/08/18 07:51:28;;;;;;;5.68;3.97;;;;;;;32.05;nan;-24700.78;4955611;29;20176;-58
2022/08/18 07:54:03;;;;;;;6.72;3.88;;;;;;;31.92;nan;-24697.28;4956381;29;20711;-59
2022/08/18 07:57:01;;;;;;;5.72;3.60;;;;;;;32.10;nan;-24702.03;4956475;29;20177;-58
2022/08/18 08:00:01;;;;;;;5.57;3.83;;;;;;;32.17;nan;-24703.94;4945457;29;20218;-59
2022/08/18 08:02:48;;;;;;;5.13;3.35;;;;;;;32.40;nan;-24710.16;4906332;28;20185;-58
2022/08/18 08:05:23;;;;;;;4.80;3.55;;;;;;;32.50;nan;-24712.75;4956431;29;20181;-59
2022/08/18 08:08:09;;;;;;;4.60;3.53;;;;;;;32.58;nan;-24714.91;4956418;29;20173;-59
2022/08/18 08:10:50;;;;;;;6.13;3.25;;;;;;;32.46;nan;-24711.66;4955194;29;20202;-59
2022/08/18 08:13:25;;;;;;;6.68;3.63;;;;;;;32.56;nan;-24714.38;4955825;29;20227;-59
2022/08/18 08:16:15;;;;;;;4.82;3.50;;;;;;;32.56;nan;-24714.50;4955297;29;20229;-59
2022/08/18 08:18:59;;;;;;;4.45;3.13;;;;;;;32.70;nan;-24718.31;4956018;29;20210;-59
2022/08/18 08:21:31;;;;;;;4.88;3.40;;;;;;;32.39;nan;-24710.03;4955787;29;20173;-59
2022/08/18 08:24:14;;;;;;;5.25;3.72;;;;;;;32.86;nan;-24722.50;4955524;29;20639;-59
2022/08/18 08:26:54;;;;;;;6.32;3.47;;;;;;;32.99;nan;-24726.03;4956459;29;20220;-59
2022/08/18 08:29:25;;;;;;;4.25;3.10;;;;;;;33.13;nan;-24729.69;4955740;29;20181;-59
2022/08/18 08:32:14;;;;;;;5.03;3.50;;;;;;;33.02;nan;-24726.72;4955659;29;20649;-59
2022/08/18 08:34:56;;;;;;;4.60;3.15;;;;;;;33.30;nan;-24734.31;4955604;28;20174;-59
2022/08/18 08:38:01;;;;;;;4.57;2.90;;;;;;;33.17;nan;-24730.78;4954664;29;20589;-59
2022/08/18 08:40:38;;;;;;;7.45;3.15;;;;;;;32.88;nan;-24723.06;4954995;28;20582;-59
2022/08/18 08:43:10;;;;;;;5.78;3.28;;;;;;;33.27;nan;-24733.50;4955099;29;20599;-59
2022/08/18 08:45:47;;;;;;;4.05;2.83;;;;;;;33.17;nan;-24730.91;4955286;29;20248;-59
2022/08/18 08:48:22;;;;;;;5.72;3.47;;;;;;;33.17;nan;-24730.91;4955198;29;20176;-59
2022/08/18 08:50:56;;;;;;;4.25;3.00;;;;;;;33.32;nan;-24734.84;4955529;29;20673;-59
2022/08/18 08:53:30;;;;;;;5.03;3.20;;;;;;;33.45;nan;-24738.38;4955505;29;20362;-59
2022/08/18 08:56:01;;;;;;;4.05;3.05;;;;;;;33.24;nan;-24732.81;4955655;29;20268;-59
2022/08/18 08:58:36;;;;;;;4.20;3.10;;;;;;;33.37;nan;-24736.06;4954802;29;20186;-59
2022/08/18 09:01:03;;;;;;;5.90;3.05;;;;;;;33.33;nan;-24734.97;4955263;29;20166;-59
2022/08/18 09:03:35;;;;;;;4.40;3.03;;;;;;;33.63;nan;-24743.09;4955044;29;20170;-59
2022/08/18 09:06:15;;;;;;;3.65;2.67;;;;;;;33.67;nan;-24744.19;4955081;29;20194;-59
2022/08/18 09:08:46;;;;;;;4.25;2.92;;;;;;;33.81;nan;-24747.97;4955142;29;20192;-59
2022/08/18 09:11:32;;;;;;;4.47;3.13;;;;;;;33.88;nan;-24749.88;4955067;29;20173;-59
2022/08/18 09:14:12;;;;;;;4.03;2.63;;;;;;;33.91;nan;-24750.56;4954718;29;20178;-58
2022/08/18 09:16:53;;;;;;;4.03;2.70;;;;;;;34.13;nan;-24756.50;4955007;29;20299;-58
2022/08/18 09:19:51;;;;;;;4.53;3.00;;;;;;;34.02;nan;-24753.66;4954716;29;20255;-58
2022/08/18 09:22:42;;;;;;;4.75;3.45;;;;;;;34.00;nan;-24753.13;4903840;29;20193;-58
2022/08/18 09:25:10;;;;;;;4.72;3.30;;;;;;;33.91;nan;-24750.69;4954683;29;20231;-58
2022/08/18 09:27:42;;;;;;;4.13;2.97;;;;;;;34.03;nan;-24753.81;4954546;29;20174;-58
2022/08/18 09:30:36;;;;;;;3.22;2.78;;;;;;;34.05;nan;-24754.47;4953688;29;20260;-58
2022/08/18 09:33:30;;;;;;;4.50;3.38;;;;;;;34.10;nan;-24755.69;4954643;29;20178;-59
2022/08/18 09:36:14;;;;;;;4.15;3.05;;;;;;;34.00;nan;-24752.97;4954822;29;20657;-58
2022/08/18 09:41:46;;;;;;;5.32;3.35;;;;;;;33.96;nan;-24752.03;4955326;29;20193;-58
2022/08/18 09:44:33;;;;;;;4.00;2.83;;;;;;;33.94;nan;-24751.50;4954880;29;20312;-58
2022/08/18 09:47:00;;;;;;;4.60;3.38;;;;;;;33.84;nan;-24748.66;4953775;28;20173;-58
2022/08/18 09:49:26;;;;;;;4.57;3.20;;;;;;;33.80;nan;-24747.72;4955027;29;20181;-58
2022/08/18 09:51:54;;;;;;;5.18;3.35;;;;;;;34.05;nan;-24754.34;4954973;29;20192;-58
2022/08/18 09:54:26;;;;;;;5.55;3.40;;;;;;;34.09;nan;-24755.41;4954692;28;20248;-58
2022/08/18 09:57:15;;;;;;;4.43;3.20;;;;;;;34.20;nan;-24758.41;4954491;29;20674;-58
2022/08/18 09:59:43;;;;;;;6.22;3.53;;;;;;;34.15;nan;-24757.03;4954550;29;20226;-58
2022/08/18 10:02:12;;;;;;;5.00;3.30;;;;;;;33.88;nan;-24749.88;4954836;29;20178;-58
2022/08/18 10:04:49;;;;;;;5.28;3.65;;;;;;;34.00;nan;-24753.13;4954636;29;20188;-58
2022/08/18 10:07:32;;;;;;;5.13;3.53;;;;;;;34.20;nan;-24758.41;4954778;29;20172;-58
2022/08/18 10:10:06;;;;;;;5.68;3.45;;;;;;;34.39;nan;-24763.41;4954507;29;20177;-58
2022/08/18 10:12:37;;;;;;;6.25;3.60;;;;;;;34.03;nan;-24753.94;4954573;29;20256;-59
2022/08/18 10:15:38;;;;;;;5.00;3.55;;;;;;;34.21;nan;-24758.66;4954293;29;20188;-57
2022/08/18 10:18:33;;;;;;;4.82;3.30;;;;;;;34.33;nan;-24761.91;4911861;28;20192;-57
2022/08/18 10:21:27;;;;;;;4.57;3.28;;;;;;;34.27;nan;-24760.16;4954456;29;20204;-58
2022/08/18 10:24:04;;;;;;;5.25;3.40;;;;;;;34.43;nan;-24764.47;4954227;29;20169;-60
2022/08/18 10:26:30;;;;;;;4.85;3.45;;;;;;;34.42;nan;-24764.34;4954536;29;20260;-58
2022/08/18 10:29:07;;;;;;;6.35;3.55;;;;;;;34.29;nan;-24760.69;4953931;29;20629;-58
2022/08/18 10:31:57;;;;;;;7.53;3.17;;;;;;;34.57;nan;-24768.41;4954152;29;20169;-58
2022/08/18 10:34:46;;;;;;;5.22;3.75;;;;;;;34.56;nan;-24768.13;4953903;28;20170;-58
2022/08/18 10:37:35;;;;;;;5.28;3.42;;;;;;;34.85;nan;-24775.81;4954353;29;20212;-58
2022/08/18 10:40:04;;;;;;;4.78;3.45;;;;;;;34.74;nan;-24772.84;4954407;29;20205;-59
2022/08/18 10:42:37;;;;;;;4.38;3.35;;;;;;;34.51;nan;-24766.78;4954184;29;20229;-58
2022/08/18 10:45:33;;;;;;;4.43;3.33;;;;;;;34.90;nan;-24777.03;4953929;29;20175;-58
2022/08/18 10:48:04;;;;;;;5.35;3.50;;;;;;;34.76;nan;-24773.25;4954050;29;20228;-59
2022/08/18 10:50:38;;;;;;;4.57;3.15;;;;;;;34.46;nan;-24765.28;4954045;29;20176;-59
2022/08/18 10:53:09;;;;;;;4.82;3.90;;;;;;;34.85;nan;-24775.81;4953708;29;20660;-59
2022/08/18 10:56:00;;;;;;;5.32;3.50;;;;;;;34.83;nan;-24775.28;4954101;29;20264;-59
2022/08/18 10:58:40;;;;;;;4.90;3.38;;;;;;;34.62;nan;-24769.47;4953801;28;20263;-59
2022/08/18 11:01:13;;;;;;;5.50;3.50;;;;;;;34.53;nan;-24767.19;4953840;29;20181;-58
2022/08/18 11:04:00;;;;;;;4.28;3.10;;;;;;;34.85;nan;-24775.81;4954000;29;20177;-59
2022/08/18 11:06:26;;;;;;;5.15;3.50;;;;;;;34.83;nan;-24775.28;4954070;29;20228;-58
2022/08/18 11:08:59;;;;;;;4.75;3.30;;;;;;;34.76;nan;-24773.41;4953778;29;20174;-59
2022/08/18 11:11:34;;;;;;;4.63;3.22;;;;;;;35.37;nan;-24789.59;4954086;29;20185;-58
2022/08/18 11:14:18;;;;;;;4.32;3.17;;;;;;;35.33;nan;-24788.53;4953937;29;20177;-59
2022/08/18 11:17:28;;;;;;;6.43;3.92;;;;;;;35.43;nan;-24791.22;4953891;29;20621;-58
2022/08/18 11:19:54;;;;;;;6.75;3.88;;;;;;;35.52;nan;-24793.63;4953436;29;20197;-59
2022/08/18 11:22:54;;;;;;;5.15;3.65;;;;;;;35.64;nan;-24796.88;4953770;29;20236;-59
2022/08/18 11:25:30;;;;;;;5.07;3.40;;;;;;;35.68;nan;-24797.97;4953616;28;20248;-58
2022/08/18 11:27:56;;;;;;;9.07;4.18;;;;;;;35.66;nan;-24797.28;4953511;29;20192;-58
2022/08/18 11:30:36;;;;;;;6.25;3.50;;;;;;;35.36;nan;-24789.47;4953137;28;20216;-59
2022/08/18 11:33:03;;;;;;;5.18;3.78;;;;;;;35.37;nan;-24789.59;4953603;29;20169;-59
2022/08/18 11:35:43;;;;;;;6.22;3.63;;;;;;;35.39;nan;-24790.13;4953776;28;20181;-58
2022/08/18 11:38:12;;;;;;;4.30;3.30;;;;;;;35.64;nan;-24796.75;4953651;29;20174;-59
2022/08/18 11:40:44;;;;;;;4.90;3.40;;;;;;;35.60;nan;-24795.78;4935871;29;20188;-60
2022/08/18 11:43:12;;;;;;;4.85;3.55;;;;;;;35.61;nan;-24796.06;4953193;29;20627;-58
2022/08/18 11:45:46;;;;;;;5.65;3.58;;;;;;;35.71;nan;-24798.63;4953567;29;20252;-58
2022/08/18 11:48:27;;;;;;;6.93;3.88;;;;;;;35.93;nan;-24804.56;4952888;29;20579;-58
2022/08/18 11:50:55;;;;;;;4.70;3.40;;;;;;;35.79;nan;-24800.91;4953607;29;20593;-60
2022/08/18 11:53:35;;;;;;;4.32;3.22;;;;;;;35.42;nan;-24790.94;4953361;29;20264;-59
2022/08/18 11:56:15;;;;;;;4.80;3.42;;;;;;;35.56;nan;-24794.72;4953415;29;20188;-59
2022/08/18 11:58:45;;;;;;;5.88;3.55;;;;;;;35.71;nan;-24798.63;4953262;29;20221;-59
2022/08/18 12:01:45;;;;;;;5.45;3.78;;;;;;;35.39;nan;-24790.13;4953390;29;20561;-58
2022/08/18 12:04:37;;;;;;;4.50;3.40;;;;;;;34.78;nan;-24773.94;4947566;29;20208;-59
2022/08/18 12:07:09;;;;;;;5.32;3.58;;;;;;;34.94;nan;-24778.25;4952950;29;20520;-59
2022/08/18 12:09:37;;;;;;;5.28;3.58;;;;;;;35.46;nan;-24792.03;4952864;28;20186;-59
2022/08/18 12:12:15;;;;;;;5.22;3.83;;;;;;;35.47;nan;-24792.41;4955882;29;20168;-59
2022/08/18 12:15:13;;;;;;;4.45;3.45;;;;;;;35.69;nan;-24798.22;4955108;29;20182;-59
2022/08/18 12:17:40;;;;;;;4.35;3.25;;;;;;;35.44;nan;-24791.63;4944727;29;20205;-60
2022/08/18 12:20:07;;;;;;;6.47;3.42;;;;;;;35.52;nan;-24793.63;4956304;29;20205;-59
2022/08/18 12:22:35;;;;;;;6.78;3.60;;;;;;;36.09;nan;-24808.72;4956543;29;20188;-61